Time;durP1;ratioP1;P1;durP2;ratioP2;P2;SDS_P1;SDS_P2;PMS_P1;PMS_P2;Temp;Humidity;BMP_temperature;BMP_pressure;BME280_temperature;BME280_humidity;BME280_pressure;Samples;Min_cycle;Max_cycle;Signal;HPM_P1;HPM_P2
2023/01/07 00:01:03;;;;;;;31.40;24.60;;;9.70;99.90;;;;;;5071668;28;20098;-70
2023/01/07 00:03:29;;;;;;;33.28;26.05;;;9.70;99.90;;;;;;5071611;28;20051;-70
2023/01/07 00:06:03;;;;;;;36.47;26.55;;;9.70;99.90;;;;;;5071519;28;20052;-70
2023/01/07 00:08:34;;;;;;;35.83;26.65;;;9.80;99.90;;;;;;5071775;28;20036;-70
2023/01/07 00:11:01;;;;;;;40.63;27.80;;;9.80;99.90;;;;;;5071508;28;20036;-70
2023/01/07 00:13:27;;;;;;;38.88;27.02;;;9.80;99.90;;;;;;5071534;28;20516;-70
2023/01/07 00:16:07;;;;;;;39.60;28.05;;;9.80;99.90;;;;;;5071719;28;20375;-70
2023/01/07 00:18:33;;;;;;;35.92;26.35;;;9.90;99.90;;;;;;5071709;28;20127;-70
2023/01/07 00:21:01;;;;;;;35.67;26.17;;;9.90;99.90;;;;;;5071469;28;20044;-70
2023/01/07 00:23:28;;;;;;;33.03;25.38;;;9.90;99.90;;;;;;5071444;28;20116;-70
2023/01/07 00:26:03;;;;;;;38.40;26.45;;;9.90;99.90;;;;;;5071345;28;20095;-70
2023/01/07 00:28:30;;;;;;;36.80;26.17;;;9.90;99.90;;;;;;5071544;28;20052;-70
2023/01/07 00:31:00;;;;;;;34.97;25.48;;;10.00;99.90;;;;;;5074583;28;20051;-70
2023/01/07 00:33:27;;;;;;;29.88;24.00;;;10.00;99.90;;;;;;5076414;28;20047;-70
2023/01/07 00:36:09;;;;;;;33.25;26.13;;;10.00;99.90;;;;;;5075372;28;20063;-70
2023/01/07 00:38:38;;;;;;;31.30;24.42;;;10.10;99.90;;;;;;5075031;28;20071;-70
2023/01/07 00:41:04;;;;;;;29.40;24.50;;;10.00;99.90;;;;;;5075057;28;20048;-70
2023/01/07 00:43:30;;;;;;;32.80;24.83;;;10.10;99.90;;;;;;5076225;28;20036;-70
2023/01/07 00:45:55;;;;;;;33.15;25.00;;;10.10;99.90;;;;;;5074837;28;20090;-70
2023/01/07 00:48:22;;;;;;;33.80;25.42;;;10.10;99.90;;;;;;5074949;28;20493;-70
2023/01/07 00:50:50;;;;;;;35.50;25.77;;;10.10;99.90;;;;;;5074845;28;20444;-70
2023/01/07 00:53:16;;;;;;;35.15;26.33;;;10.10;99.90;;;;;;5076575;28;20094;-70
2023/01/07 00:55:42;;;;;;;35.17;25.88;;;10.10;99.90;;;;;;5074982;28;20101;-70
2023/01/07 00:58:20;;;;;;;32.50;25.52;;;10.10;99.90;;;;;;5074934;28;20139;-70
2023/01/07 01:00:45;;;;;;;34.55;26.92;;;10.20;99.90;;;;;;5074694;28;20049;-70
2023/01/07 01:03:12;;;;;;;31.98;24.90;;;10.10;99.90;;;;;;5074574;28;20045;-70
2023/01/07 01:05:38;;;;;;;32.50;25.92;;;10.20;99.90;;;;;;5074523;28;20040;-70
2023/01/07 01:08:04;;;;;;;35.65;26.17;;;10.20;99.90;;;;;;5057748;28;20394;-70
2023/01/07 01:10:30;;;;;;;35.50;25.75;;;10.20;99.90;;;;;;5074752;28;20106;-70
2023/01/07 01:12:55;;;;;;;33.38;25.83;;;10.20;99.90;;;;;;5074732;28;20058;-70
2023/01/07 01:15:21;;;;;;;32.13;24.70;;;10.20;99.90;;;;;;5074436;28;20484;-70
2023/01/07 01:17:49;;;;;;;34.58;25.50;;;10.20;99.90;;;;;;5074293;28;20110;-70
2023/01/07 01:20:15;;;;;;;32.90;25.52;;;10.20;99.90;;;;;;5074622;28;20040;-70
2023/01/07 01:22:41;;;;;;;34.28;25.10;;;10.30;99.90;;;;;;5074528;28;20520;-70
2023/01/07 01:25:07;;;;;;;30.02;24.20;;;10.30;99.90;;;;;;5074159;28;20516;-70
2023/01/07 01:27:33;;;;;;;29.05;24.25;;;10.30;99.90;;;;;;5074141;28;20485;-70
2023/01/07 01:29:59;;;;;;;31.58;25.10;;;10.30;99.90;;;;;;5074195;28;20123;-70
2023/01/07 01:32:25;;;;;;;33.38;26.58;;;10.40;99.90;;;;;;5074101;28;20073;-70
2023/01/07 01:34:51;;;;;;;29.15;24.67;;;10.40;99.90;;;;;;5074256;28;20059;-70
2023/01/07 01:37:16;;;;;;;32.67;26.00;;;10.40;99.90;;;;;;5074204;28;20401;-70
2023/01/07 01:39:42;;;;;;;30.63;25.65;;;10.40;99.90;;;;;;5075255;28;20040;-70
2023/01/07 01:42:21;;;;;;;27.65;24.63;;;10.40;99.90;;;;;;5073957;28;20043;-70
2023/01/07 01:44:51;;;;;;;31.90;25.85;;;10.40;99.90;;;;;;5073802;28;20123;-70
2023/01/07 01:47:39;;;;;;;28.08;24.40;;;10.40;99.90;;;;;;5074013;28;20052;-70
2023/01/07 01:50:23;;;;;;;28.60;25.15;;;10.40;99.90;;;;;;5073952;28;20063;-70
2023/01/07 01:53:05;;;;;;;30.45;25.25;;;10.40;99.90;;;;;;5073717;28;20539;-70
2023/01/07 01:55:40;;;;;;;27.50;24.48;;;10.40;99.90;;;;;;5073976;28;20055;-70
2023/01/07 01:58:14;;;;;;;26.42;23.65;;;10.50;99.90;;;;;;5073810;28;20051;-70
2023/01/07 02:00:41;;;;;;;25.40;22.65;;;10.50;99.90;;;;;;5073596;28;20052;-70
2023/01/07 02:03:10;;;;;;;25.00;22.40;;;10.50;99.90;;;;;;5073489;28;20497;-70
2023/01/07 02:05:39;;;;;;;25.95;23.13;;;10.60;99.90;;;;;;5073387;28;20115;-70
2023/01/07 02:08:04;;;;;;;25.48;22.77;;;10.50;99.90;;;;;;5073581;28;20051;-70
2023/01/07 02:10:31;;;;;;;25.20;22.38;;;10.50;99.90;;;;;;5073560;28;20481;-70
2023/01/07 02:13:23;;;;;;;25.20;22.65;;;10.50;99.90;;;;;;5073533;28;20489;-70
2023/01/07 02:15:55;;;;;;;23.90;21.40;;;10.60;99.90;;;;;;5074529;28;20094;-70
2023/01/07 02:18:40;;;;;;;23.83;21.13;;;10.50;99.90;;;;;;5073164;28;20036;-70
2023/01/07 02:21:21;;;;;;;23.48;21.20;;;10.60;99.90;;;;;;5073394;28;20111;-70
2023/01/07 02:24:22;;;;;;;22.88;20.67;;;10.60;99.90;;;;;;5073024;28;20044;-70
2023/01/07 02:27:09;;;;;;;22.27;20.17;;;10.60;99.90;;;;;;5072991;28;20052;-70
2023/01/07 02:29:50;;;;;;;24.13;21.55;;;10.60;99.90;;;;;;5073000;28;20045;-70
2023/01/07 02:32:41;;;;;;;23.25;21.02;;;10.60;99.90;;;;;;5072864;28;20124;-70
2023/01/07 02:35:28;;;;;;;22.98;20.58;;;10.60;99.90;;;;;;5072850;28;20048;-70
2023/01/07 02:38:22;;;;;;;23.08;20.75;;;10.50;99.90;;;;;;5072718;28;20051;-70
2023/01/07 02:40:58;;;;;;;21.40;19.40;;;10.50;99.90;;;;;;5073577;28;20385;-70
2023/01/07 02:43:45;;;;;;;22.90;20.70;;;10.60;99.90;;;;;;5072694;28;20041;-70
2023/01/07 02:46:32;;;;;;;23.17;20.95;;;10.60;99.90;;;;;;5074186;28;20044;-70
2023/01/07 02:48:59;;;;;;;23.02;20.75;;;10.60;99.90;;;;;;5072356;28;20078;-70
2023/01/07 02:51:33;;;;;;;22.27;20.08;;;10.50;99.90;;;;;;5072373;28;20455;-70
2023/01/07 02:54:00;;;;;;;22.55;20.13;;;10.60;99.90;;;;;;5072443;28;20185;-70
2023/01/07 02:56:51;;;;;;;22.65;20.33;;;10.50;99.90;;;;;;5072686;28;20048;-70
2023/01/07 02:59:40;;;;;;;22.20;19.95;;;10.50;99.90;;;;;;5044653;28;20049;-70
2023/01/07 03:02:35;;;;;;;23.30;20.88;;;10.50;99.90;;;;;;5072404;28;20040;-70
2023/01/07 03:05:01;;;;;;;21.63;19.40;;;10.50;99.90;;;;;;5072251;28;20124;-70
2023/01/07 03:07:32;;;;;;;22.45;20.27;;;10.50;99.90;;;;;;5072483;28;20133;-70
2023/01/07 03:10:31;;;;;;;22.20;19.88;;;10.50;99.90;;;;;;5072297;28;20036;-70
2023/01/07 03:13:05;;;;;;;21.73;19.73;;;10.60;99.90;;;;;;5072450;28;20040;-70
2023/01/07 03:15:42;;;;;;;24.23;20.13;;;10.60;99.90;;;;;;5072416;28;20405;-70
2023/01/07 03:18:17;;;;;;;21.42;19.20;;;10.50;99.90;;;;;;5072094;28;20040;-70
2023/01/07 03:20:44;;;;;;;21.45;19.15;;;10.60;99.90;;;;;;5072142;28;20059;-70
2023/01/07 03:23:12;;;;;;;20.67;18.48;;;10.50;99.90;;;;;;5073322;28;20086;-70
2023/01/07 03:25:45;;;;;;;22.00;19.70;;;10.50;99.90;;;;;;5071948;28;20045;-70
2023/01/07 03:28:15;;;;;;;21.42;19.15;;;10.50;99.90;;;;;;5071968;28;20055;-70
2023/01/07 03:30:41;;;;;;;21.27;19.08;;;10.50;99.90;;;;;;5071949;28;20041;-70
2023/01/07 03:33:13;;;;;;;19.95;17.85;;;10.50;99.90;;;;;;5072171;28;20072;-70
2023/01/07 03:35:44;;;;;;;21.98;19.55;;;10.50;99.90;;;;;;5071979;28;20048;-70
2023/01/07 03:38:11;;;;;;;20.00;18.00;;;10.50;99.90;;;;;;5072081;28;20052;-70
2023/01/07 03:40:37;;;;;;;20.45;18.30;;;10.40;99.90;;;;;;5071810;28;20040;-70
2023/01/07 03:43:03;;;;;;;20.77;18.52;;;10.50;99.90;;;;;;5072032;28;20054;-70
2023/01/07 03:45:29;;;;;;;20.95;17.90;;;10.40;99.90;;;;;;5071772;28;20049;-70
2023/01/07 03:47:56;;;;;;;20.85;18.20;;;10.40;99.90;;;;;;5071693;28;20112;-70
2023/01/07 03:50:22;;;;;;;22.00;18.70;;;10.40;99.90;;;;;;5071647;28;20055;-70
2023/01/07 03:52:49;;;;;;;21.35;17.95;;;10.30;99.90;;;;;;5071939;28;20040;-70
2023/01/07 03:55:15;;;;;;;20.23;17.92;;;10.30;99.90;;;;;;5071677;28;20502;-70
2023/01/07 03:57:40;;;;;;;19.67;17.55;;;10.30;99.90;;;;;;5071573;28;20044;-70
2023/01/07 04:00:08;;;;;;;19.52;17.60;;;10.30;99.90;;;;;;5071665;28;20051;-70
2023/01/07 04:02:34;;;;;;;21.00;16.75;;;10.30;99.90;;;;;;5071632;28;20052;-70
2023/01/07 04:04:59;;;;;;;18.40;16.60;;;10.40;99.90;;;;;;5075287;28;20044;-70
2023/01/07 04:07:25;;;;;;;19.70;17.58;;;10.40;99.90;;;;;;5075859;28;20516;-70
2023/01/07 04:09:50;;;;;;;20.48;16.75;;;10.40;99.90;;;;;;5075663;28;20489;-70
2023/01/07 04:12:17;;;;;;;20.40;17.25;;;10.30;99.90;;;;;;5075596;28;20039;-70
2023/01/07 04:14:42;;;;;;;19.73;16.33;;;10.40;99.90;;;;;;5075561;28;20084;-70
2023/01/07 04:17:08;;;;;;;18.83;15.52;;;10.30;99.90;;;;;;5076691;28;20082;-70
2023/01/07 04:19:34;;;;;;;19.52;15.45;;;10.30;99.90;;;;;;5075469;28;20043;-70
2023/01/07 04:21:59;;;;;;;17.02;15.23;;;10.30;99.90;;;;;;5075407;28;20112;-70
2023/01/07 04:24:25;;;;;;;18.20;15.25;;;10.40;99.90;;;;;;5075539;28;20055;-70
2023/01/07 04:26:50;;;;;;;16.27;14.68;;;10.30;99.90;;;;;;5075489;28;20472;-70
2023/01/07 04:29:16;;;;;;;16.65;14.95;;;10.40;99.90;;;;;;5075270;28;20082;-70
2023/01/07 04:31:42;;;;;;;17.10;14.45;;;10.30;99.90;;;;;;5075227;28;20040;-70
2023/01/07 04:34:08;;;;;;;18.85;14.77;;;10.30;99.90;;;;;;5075145;28;20040;-70
2023/01/07 04:36:34;;;;;;;17.27;14.23;;;10.30;99.90;;;;;;5076622;28;20024;-70
2023/01/07 04:39:01;;;;;;;17.13;14.30;;;10.30;99.90;;;;;;5075012;28;20504;-70
2023/01/07 04:41:26;;;;;;;16.60;13.90;;;10.30;99.90;;;;;;5075305;28;20119;-70
2023/01/07 04:43:52;;;;;;;17.08;13.25;;;10.30;99.90;;;;;;5074874;28;20120;-70
2023/01/07 04:46:17;;;;;;;17.33;13.48;;;10.30;99.90;;;;;;5075201;28;20040;-70
2023/01/07 04:48:43;;;;;;;18.63;13.70;;;10.30;99.90;;;;;;5076173;28;20378;-70
2023/01/07 04:51:08;;;;;;;14.75;12.40;;;10.30;99.90;;;;;;5074879;28;20079;-70
2023/01/07 04:53:34;;;;;;;17.15;13.07;;;10.30;99.90;;;;;;5075060;28;20041;-70
2023/01/07 04:55:59;;;;;;;15.20;12.98;;;10.30;99.90;;;;;;5074761;28;20496;-70
2023/01/07 04:58:25;;;;;;;16.30;13.20;;;10.30;99.90;;;;;;5074676;28;20122;-70
2023/01/07 05:00:53;;;;;;;16.00;12.27;;;10.30;99.90;;;;;;5074642;28;20040;-70
2023/01/07 05:03:18;;;;;;;16.05;12.40;;;10.30;99.90;;;;;;5074631;28;20044;-70
2023/01/07 05:05:44;;;;;;;15.02;12.40;;;10.30;99.90;;;;;;5074523;28;20098;-70
2023/01/07 05:08:10;;;;;;;13.95;11.73;;;10.30;99.90;;;;;;5074743;28;20123;-70
2023/01/07 05:10:36;;;;;;;15.35;12.13;;;10.30;99.90;;;;;;5074506;28;20091;-70
2023/01/07 05:13:04;;;;;;;13.20;11.68;;;10.30;99.90;;;;;;5074456;28;20072;-70
2023/01/07 05:15:30;;;;;;;16.77;11.93;;;10.30;99.90;;;;;;5073807;28;20044;-70
2023/01/07 05:17:55;;;;;;;16.40;11.93;;;10.30;99.90;;;;;;5074314;28;20044;-70
2023/01/07 05:20:21;;;;;;;16.00;12.00;;;10.40;99.90;;;;;;5074333;28;20089;-70
2023/01/07 05:22:46;;;;;;;14.32;11.60;;;10.30;99.90;;;;;;5074541;28;20040;-70
2023/01/07 05:25:12;;;;;;;16.33;11.75;;;10.30;99.90;;;;;;5074144;28;20435;-70
2023/01/07 05:27:38;;;;;;;13.68;10.30;;;10.30;99.90;;;;;;5075703;28;20041;-70
2023/01/07 05:30:04;;;;;;;13.43;10.25;;;10.30;99.90;;;;;;5074144;28;20166;-70
2023/01/07 05:32:29;;;;;;;13.27;9.63;;;10.30;99.90;;;;;;5074089;28;20044;-70
2023/01/07 05:34:56;;;;;;;13.07;10.20;;;10.30;99.90;;;;;;5074008;28;20048;-70
2023/01/07 05:37:22;;;;;;;14.35;9.70;;;10.40;99.90;;;;;;5074218;28;20133;-70
2023/01/07 05:39:47;;;;;;;12.02;9.98;;;10.40;99.90;;;;;;5075167;28;20516;-70
2023/01/07 05:42:13;;;;;;;12.48;9.85;;;10.30;99.90;;;;;;5075417;28;20041;-70
2023/01/07 05:44:38;;;;;;;11.73;9.60;;;10.30;99.90;;;;;;5073996;28;20049;-70
2023/01/07 05:47:04;;;;;;;14.07;9.75;;;10.30;99.90;;;;;;5075323;28;20039;-70
2023/01/07 05:49:29;;;;;;;11.23;9.95;;;10.30;99.90;;;;;;5074834;28;20114;-70
2023/01/07 05:51:55;;;;;;;12.23;9.25;;;10.30;99.90;;;;;;5073726;28;20046;-70
2023/01/07 05:54:21;;;;;;;9.57;8.57;;;10.30;99.90;;;;;;5073634;28;20044;-70
2023/01/07 05:56:46;;;;;;;14.75;9.00;;;10.30;99.90;;;;;;5073563;28;20120;-70
2023/01/07 05:59:12;;;;;;;12.93;8.80;;;10.30;99.90;;;;;;5073874;28;20072;-70
2023/01/07 06:01:37;;;;;;;13.30;9.25;;;10.30;99.90;;;;;;5073586;28;20036;-70
2023/01/07 06:04:03;;;;;;;11.75;8.73;;;10.20;99.90;;;;;;5073436;28;20040;-70
2023/01/07 06:06:28;;;;;;;17.38;8.65;;;10.30;99.90;;;;;;5073405;28;20037;-70
2023/01/07 06:08:54;;;;;;;12.15;8.48;;;10.30;99.90;;;;;;5073574;28;20072;-70
2023/01/07 06:11:19;;;;;;;13.13;8.98;;;10.30;99.90;;;;;;5073351;28;20482;-70
2023/01/07 06:13:45;;;;;;;11.77;8.32;;;10.20;99.90;;;;;;5073299;28;20044;-70
2023/01/07 06:16:12;;;;;;;12.25;8.30;;;10.20;99.90;;;;;;5073487;28;20080;-70
2023/01/07 06:18:38;;;;;;;12.60;7.70;;;10.20;99.90;;;;;;5073413;28;20044;-70
2023/01/07 06:21:04;;;;;;;11.45;8.00;;;10.20;99.90;;;;;;5073128;28;20520;-70
2023/01/07 06:23:30;;;;;;;9.02;7.70;;;10.20;99.90;;;;;;5073072;28;20036;-70
2023/01/07 06:25:55;;;;;;;12.23;8.27;;;10.20;99.90;;;;;;5072997;28;20041;-70
2023/01/07 06:28:21;;;;;;;12.57;8.23;;;10.30;99.90;;;;;;5071953;28;20044;-70
2023/01/07 06:30:47;;;;;;;10.02;8.48;;;10.20;99.90;;;;;;5072913;28;20037;-70
2023/01/07 06:33:14;;;;;;;11.75;8.20;;;10.20;99.90;;;;;;5073105;28;20127;-70
2023/01/07 06:35:40;;;;;;;9.95;7.95;;;10.30;99.90;;;;;;5072853;28;20123;-70
2023/01/07 06:38:05;;;;;;;11.02;7.68;;;10.20;99.90;;;;;;5072750;28;20123;-70
2023/01/07 06:40:31;;;;;;;8.95;7.40;;;10.30;99.90;;;;;;5073092;28;20044;-70
2023/01/07 06:42:57;;;;;;;9.32;7.25;;;10.30;99.90;;;;;;5072680;28;20559;-70
2023/01/07 06:45:22;;;;;;;9.20;7.88;;;10.30;99.90;;;;;;5073860;28;20047;-70
2023/01/07 06:47:48;;;;;;;10.90;7.85;;;10.30;99.90;;;;;;5072598;28;20389;-70
2023/01/07 06:50:15;;;;;;;9.15;6.82;;;10.30;99.90;;;;;;5072806;28;20072;-70
2023/01/07 06:52:40;;;;;;;9.48;7.13;;;10.30;99.90;;;;;;5072554;28;20051;-70
2023/01/07 06:55:06;;;;;;;12.38;7.75;;;10.30;99.90;;;;;;5072477;28;20040;-70
2023/01/07 06:57:32;;;;;;;11.05;7.38;;;10.20;99.90;;;;;;5072649;28;20051;-70
2023/01/07 06:59:58;;;;;;;8.82;7.13;;;10.30;99.90;;;;;;5072343;28;20462;-70
2023/01/07 07:02:27;;;;;;;11.90;7.60;;;10.20;99.90;;;;;;5072334;28;20041;-70
2023/01/07 07:04:53;;;;;;;11.23;6.80;;;10.20;99.90;;;;;;5072421;28;20037;-70
2023/01/07 07:07:20;;;;;;;9.55;6.78;;;10.30;99.90;;;;;;5072434;28;20541;-70
2023/01/07 07:09:46;;;;;;;8.60;7.13;;;10.20;99.90;;;;;;5055817;28;20455;-70
2023/01/07 07:12:13;;;;;;;11.57;6.63;;;10.20;99.90;;;;;;5072459;28;20489;-70
2023/01/07 07:14:38;;;;;;;8.70;6.20;;;10.20;99.90;;;;;;5072263;28;20044;-70
2023/01/07 07:17:04;;;;;;;9.05;6.10;;;10.20;99.90;;;;;;5072378;28;20071;-70
2023/01/07 07:19:30;;;;;;;9.52;6.28;;;10.20;99.90;;;;;;5072140;28;20504;-70
2023/01/07 07:21:56;;;;;;;10.00;5.78;;;10.20;99.90;;;;;;5072354;28;20048;-70
2023/01/07 07:24:22;;;;;;;7.80;6.00;;;10.20;99.90;;;;;;5072236;28;20074;-70
2023/01/07 07:26:47;;;;;;;11.90;6.63;;;10.20;99.90;;;;;;5071958;28;20048;-70
2023/01/07 07:29:13;;;;;;;10.00;6.03;;;10.20;99.90;;;;;;5072028;28;20071;-70
2023/01/07 07:31:38;;;;;;;8.05;5.68;;;10.20;99.90;;;;;;5071958;28;20124;-70
2023/01/07 07:34:04;;;;;;;11.68;6.25;;;10.20;99.90;;;;;;5072777;28;20032;-70
2023/01/07 07:36:30;;;;;;;10.10;6.43;;;10.20;99.90;;;;;;5071924;28;20085;-70
2023/01/07 07:38:56;;;;;;;6.35;5.00;;;10.10;99.90;;;;;;5071509;28;20419;-70
2023/01/07 07:41:22;;;;;;;6.90;5.45;;;10.10;99.90;;;;;;5072080;28;20040;-70
2023/01/07 07:43:47;;;;;;;7.80;5.55;;;10.10;99.90;;;;;;5072083;28;20400;-70
2023/01/07 07:46:13;;;;;;;7.47;5.32;;;10.10;99.90;;;;;;5072101;28;20072;-70
2023/01/07 07:48:39;;;;;;;10.60;5.38;;;10.10;99.90;;;;;;5071818;28;20043;-70
2023/01/07 07:51:04;;;;;;;8.45;5.53;;;10.10;99.90;;;;;;5072030;28;20509;-70
2023/01/07 07:53:30;;;;;;;9.23;5.43;;;10.10;99.90;;;;;;5071984;28;20493;-70
2023/01/07 07:55:55;;;;;;;7.05;5.32;;;10.10;99.90;;;;;;5072012;28;20060;-70
2023/01/07 07:58:21;;;;;;;6.50;4.72;;;10.00;99.90;;;;;;5071630;28;20037;-70
2023/01/07 08:00:47;;;;;;;6.80;5.00;;;10.00;99.90;;;;;;5071663;28;20044;-69
2023/01/07 08:03:12;;;;;;;6.93;4.57;;;10.00;99.90;;;;;;5071657;28;20041;-70
2023/01/07 08:05:42;;;;;;;6.57;4.47;;;10.00;99.90;;;;;;5071652;28;20107;-70
2023/01/07 08:08:10;;;;;;;7.05;4.80;;;10.00;99.90;;;;;;5071846;28;20059;-70
2023/01/07 08:10:36;;;;;;;7.38;4.93;;;10.00;99.90;;;;;;5071811;28;20386;-70
2023/01/07 08:13:02;;;;;;;9.05;4.80;;;10.00;99.90;;;;;;5071795;28;20063;-70
2023/01/07 08:15:28;;;;;;;7.22;4.63;;;10.00;99.90;;;;;;5071548;28;20516;-70
2023/01/07 08:18:03;;;;;;;7.25;4.63;;;10.00;99.90;;;;;;5071680;28;20046;-70
2023/01/07 08:20:29;;;;;;;7.60;4.55;;;10.00;99.90;;;;;;5072709;28;20497;-70
2023/01/07 08:22:59;;;;;;;5.80;4.30;;;10.00;99.90;;;;;;5054765;28;20123;-70
2023/01/07 08:25:25;;;;;;;5.65;4.15;;;10.00;99.90;;;;;;5071363;28;20049;-70
2023/01/07 08:27:50;;;;;;;7.38;4.25;;;10.00;99.90;;;;;;5073146;28;20048;-70
2023/01/07 08:30:16;;;;;;;8.10;3.90;;;10.00;99.90;;;;;;5071647;28;20049;-70
2023/01/07 08:32:43;;;;;;;7.57;4.82;;;10.10;99.90;;;;;;5071706;28;20044;-70
2023/01/07 08:35:09;;;;;;;7.57;4.28;;;10.10;99.90;;;;;;5071352;28;20556;-70
2023/01/07 08:37:34;;;;;;;7.03;4.03;;;10.10;99.90;;;;;;5071325;28;20055;-70
2023/01/07 08:40:00;;;;;;;5.47;3.95;;;10.10;99.90;;;;;;5071558;28;20052;-70
2023/01/07 08:42:26;;;;;;;5.13;3.47;;;10.10;99.90;;;;;;5071313;28;20079;-70
2023/01/07 08:44:52;;;;;;;10.23;4.20;;;10.10;99.90;;;;;;5071381;28;20056;-70
2023/01/07 08:47:17;;;;;;;6.25;3.90;;;10.00;99.90;;;;;;5071396;28;20377;-70
2023/01/07 08:49:44;;;;;;;8.07;4.45;;;10.00;99.90;;;;;;5071084;28;20130;-70
2023/01/07 08:52:10;;;;;;;5.90;3.50;;;10.00;99.90;;;;;;5074658;28;20038;-70
2023/01/07 08:54:35;;;;;;;5.63;3.63;;;10.00;99.90;;;;;;5074971;28;20048;-70
2023/01/07 08:57:01;;;;;;;6.88;4.00;;;10.00;99.90;;;;;;5074687;28;20127;-70
2023/01/07 08:59:27;;;;;;;7.55;3.70;;;10.00;99.90;;;;;;5075841;28;20079;-70
2023/01/07 09:01:52;;;;;;;4.65;3.13;;;10.00;99.90;;;;;;5057989;28;20094;-70
2023/01/07 09:04:18;;;;;;;5.07;3.58;;;10.00;99.90;;;;;;5074615;28;20116;-70
2023/01/07 09:06:43;;;;;;;6.18;3.92;;;10.00;99.90;;;;;;5074827;28;20040;-70
2023/01/07 09:09:10;;;;;;;7.40;3.97;;;10.00;99.90;;;;;;5076070;28;20478;-70
2023/01/07 09:11:36;;;;;;;9.25;3.50;;;10.00;99.90;;;;;;5075792;28;20107;-70
2023/01/07 09:14:02;;;;;;;9.35;4.00;;;10.00;99.90;;;;;;5074504;28;20047;-70
2023/01/07 09:16:27;;;;;;;6.15;3.40;;;10.10;99.90;;;;;;5074688;28;20119;-70
2023/01/07 09:18:53;;;;;;;6.13;3.70;;;10.00;99.90;;;;;;5074563;28;20397;-71
2023/01/07 09:21:19;;;;;;;4.85;3.20;;;10.00;99.90;;;;;;5074515;28;20484;-71
2023/01/07 09:23:45;;;;;;;5.88;3.33;;;10.00;99.90;;;;;;5074587;28;20079;-71
2023/01/07 09:26:10;;;;;;;7.03;3.70;;;10.00;99.90;;;;;;5074222;28;20386;-71
2023/01/07 09:28:36;;;;;;;5.30;3.75;;;10.00;99.90;;;;;;5074379;28;20041;-71
2023/01/07 09:31:03;;;;;;;6.18;3.40;;;10.00;99.90;;;;;;5074292;28;20512;-71
2023/01/07 09:33:28;;;;;;;6.53;3.42;;;10.00;99.90;;;;;;5074141;28;20538;-71
2023/01/07 09:35:54;;;;;;;4.97;3.47;;;10.00;99.90;;;;;;5075582;28;20116;-71
2023/01/07 09:38:20;;;;;;;4.68;3.05;;;10.00;99.90;;;;;;5074085;28;20143;-71
2023/01/07 09:40:45;;;;;;;5.05;3.00;;;10.00;99.90;;;;;;5074142;28;20171;-71
2023/01/07 09:43:33;;;;;;;6.40;3.55;;;10.00;99.90;;;;;;5073969;28;20052;-71
2023/01/07 09:46:03;;;;;;;4.63;2.88;;;10.10;99.90;;;;;;5073796;28;20075;-71
2023/01/07 09:48:32;;;;;;;5.18;3.28;;;10.10;99.90;;;;;;5073661;28;20485;-71
2023/01/07 09:51:05;;;;;;;7.03;3.40;;;10.00;99.90;;;;;;5074134;28;20408;-70
2023/01/07 09:53:40;;;;;;;5.78;3.13;;;10.10;99.90;;;;;;5073802;28;20167;-70
2023/01/07 09:56:14;;;;;;;3.70;2.65;;;10.10;99.90;;;;;;5073952;28;20044;-70
2023/01/07 09:58:43;;;;;;;6.35;3.45;;;10.20;99.90;;;;;;5073903;28;20145;-70
2023/01/07 10:01:44;;;;;;;4.13;2.88;;;10.20;99.90;;;;;;5073502;28;20051;-74
2023/01/07 10:04:19;;;;;;;5.55;3.22;;;10.20;99.90;;;;;;5073468;28;20041;-71
2023/01/07 10:07:10;;;;;;;4.93;2.65;;;10.20;99.90;;;;;;5073456;28;20072;-71
2023/01/07 10:10:11;;;;;;;5.72;3.10;;;10.20;99.90;;;;;;5073529;28;20040;-71
2023/01/07 10:12:49;;;;;;;5.65;2.92;;;10.20;99.90;;;;;;5074588;28;20120;-71
2023/01/07 10:15:17;;;;;;;3.80;2.63;;;10.20;99.90;;;;;;5073716;28;20044;-71
2023/01/07 10:17:51;;;;;;;5.95;2.90;;;10.20;99.90;;;;;;5073132;28;20063;-71
2023/01/07 10:20:33;;;;;;;5.25;2.50;;;10.20;99.90;;;;;;5073121;28;20048;-71
2023/01/07 10:23:07;;;;;;;5.18;2.63;;;10.20;99.90;;;;;;5056484;28;20497;-71
2023/01/07 10:25:40;;;;;;;5.72;3.00;;;10.20;99.90;;;;;;5073038;28;20048;-71
2023/01/07 10:28:12;;;;;;;4.40;2.58;;;10.20;99.90;;;;;;5073112;28;20051;-71
2023/01/07 10:30:43;;;;;;;5.45;3.08;;;10.20;99.90;;;;;;5073025;28;20041;-71
2023/01/07 10:33:28;;;;;;;4.95;2.22;;;10.30;99.90;;;;;;5072992;28;20447;-71
2023/01/07 10:36:18;;;;;;;5.05;2.63;;;10.30;99.90;;;;;;5074414;28;20050;-71
2023/01/07 10:39:05;;;;;;;4.00;2.30;;;10.30;99.90;;;;;;5072826;28;20044;-71
2023/01/07 10:41:55;;;;;;;4.65;2.03;;;10.30;99.90;;;;;;5072847;28;20044;-71
2023/01/07 10:44:43;;;;;;;3.97;2.28;;;10.30;99.90;;;;;;5073912;28;20040;-71
2023/01/07 10:47:37;;;;;;;2.88;1.70;;;10.30;99.90;;;;;;5072639;28;20051;-71
2023/01/07 10:50:12;;;;;;;3.42;2.10;;;10.40;99.90;;;;;;5072877;28;20048;-71
2023/01/07 10:52:52;;;;;;;4.93;2.42;;;10.40;99.90;;;;;;5072860;28;20055;-71
2023/01/07 10:55:29;;;;;;;4.28;1.92;;;10.50;99.90;;;;;;5072601;28;20048;-71
2023/01/07 10:57:55;;;;;;;3.00;1.70;;;10.50;99.90;;;;;;5072443;28;20059;-71
2023/01/07 11:00:23;;;;;;;4.20;1.70;;;10.60;99.90;;;;;;5072433;28;20040;-71
2023/01/07 11:02:58;;;;;;;2.70;1.50;;;10.60;99.90;;;;;;5072602;28;20527;-71
2023/01/07 11:05:35;;;;;;;4.95;1.80;;;10.60;99.90;;;;;;5072289;28;20048;-70
2023/01/07 11:08:03;;;;;;;4.30;1.80;;;10.60;99.90;;;;;;5072541;28;20047;-70
2023/01/07 11:10:36;;;;;;;7.55;2.20;;;10.60;99.90;;;;;;5072223;28;20039;-70
2023/01/07 11:13:05;;;;;;;4.55;2.10;;;10.70;99.90;;;;;;5071720;28;20401;-70
2023/01/07 11:15:39;;;;;;;3.40;1.70;;;10.60;99.90;;;;;;5072198;28;20049;-71
2023/01/07 11:18:35;;;;;;;2.38;1.40;;;10.60;99.90;;;;;;5055486;28;20068;-70
2023/01/07 11:21:01;;;;;;;3.35;1.80;;;10.70;99.90;;;;;;5072428;28;20066;-70
2023/01/07 11:23:31;;;;;;;6.72;2.15;;;10.60;99.90;;;;;;5073768;28;20051;-70
2023/01/07 11:26:15;;;;;;;3.65;1.50;;;10.70;99.90;;;;;;5072007;28;20528;-71
2023/01/07 11:28:54;;;;;;;3.85;1.63;;;10.70;99.90;;;;;;5071961;28;20036;-70
2023/01/07 11:31:41;;;;;;;4.20;1.58;;;10.70;99.90;;;;;;5072315;28;20528;-70
2023/01/07 11:34:17;;;;;;;3.53;1.60;;;10.70;99.90;;;;;;5071978;28;20505;-70
2023/01/07 11:36:43;;;;;;;4.97;1.60;;;10.80;99.90;;;;;;5072365;28;20539;-70
2023/01/07 11:39:25;;;;;;;2.20;1.40;;;10.70;99.90;;;;;;5072240;28;20048;-70
2023/01/07 11:41:57;;;;;;;3.15;1.55;;;10.80;99.90;;;;;;5072164;28;20067;-70
2023/01/07 11:44:24;;;;;;;3.67;1.50;;;10.80;99.90;;;;;;5071881;28;20055;-71
2023/01/07 11:46:51;;;;;;;3.20;1.20;;;10.80;99.90;;;;;;5072032;28;20116;-70
2023/01/07 11:49:23;;;;;;;2.42;1.48;;;10.80;99.90;;;;;;5071907;28;20056;-70
2023/01/07 11:51:49;;;;;;;2.05;1.42;;;10.80;99.90;;;;;;5072105;28;20481;-70
2023/01/07 11:54:27;;;;;;;2.42;1.58;;;10.80;99.90;;;;;;5071864;28;20067;-70
2023/01/07 11:57:08;;;;;;;2.15;1.40;;;10.80;99.90;;;;;;5073955;28;20470;-70
2023/01/07 11:59:34;;;;;;;2.67;1.30;;;10.80;99.90;;;;;;5071895;28;20048;-71
2023/01/07 12:02:00;;;;;;;2.22;1.25;;;10.80;99.90;;;;;;5072159;28;20033;-71
2023/01/07 12:04:27;;;;;;;2.42;1.55;;;10.80;99.90;;;;;;5054955;28;20082;-71
2023/01/07 12:06:56;;;;;;;3.42;1.45;;;10.80;99.90;;;;;;5071624;28;20044;-71
2023/01/07 12:09:24;;;;;;;3.45;1.40;;;10.80;99.90;;;;;;5073126;28;20071;-71
2023/01/07 12:11:52;;;;;;;2.25;1.35;;;10.80;99.90;;;;;;5071843;28;20048;-71
2023/01/07 12:14:25;;;;;;;1.83;1.10;;;10.90;99.90;;;;;;5071438;28;20041;-71
2023/01/07 12:16:53;;;;;;;3.42;1.45;;;10.90;99.90;;;;;;5071565;28;20116;-71
2023/01/07 12:19:35;;;;;;;3.15;1.20;;;11.10;99.90;;;;;;5071495;28;20516;-71
2023/01/07 12:22:25;;;;;;;2.03;1.17;;;11.60;99.90;;;;;;5072621;28;20074;-71
2023/01/07 12:25:21;;;;;;;2.88;1.25;;;12.20;99.90;;;;;;5071410;28;20569;-71
2023/01/07 12:28:15;;;;;;;2.28;1.30;;;12.70;99.90;;;;;;5076113;28;20036;-71
2023/01/07 12:30:53;;;;;;;3.28;1.35;;;13.00;99.90;;;;;;5075376;28;20551;-75
2023/01/07 12:34:03;;;;;;;2.03;0.93;;;13.30;99.90;;;;;;5075245;28;20043;-71
2023/01/07 12:36:46;;;;;;;2.70;1.20;;;13.40;99.90;;;;;;5075265;28;20097;-71
2023/01/07 12:39:23;;;;;;;1.95;1.00;;;13.50;99.90;;;;;;5075496;28;20048;-71
2023/01/07 12:42:03;;;;;;;2.22;1.15;;;13.80;99.90;;;;;;5075143;28;20070;-71
2023/01/07 12:44:30;;;;;;;3.83;0.98;;;14.10;99.90;;;;;;5075000;28;20032;-75
2023/01/07 12:47:11;;;;;;;4.57;1.27;;;14.50;99.90;;;;;;5074913;28;20051;-75
2023/01/07 12:49:55;;;;;;;1.42;0.90;;;14.90;99.90;;;;;;5058268;28;20033;-71
2023/01/07 12:52:56;;;;;;;1.67;0.77;;;15.10;99.90;;;;;;5072809;28;20048;-74
2023/01/07 12:55:51;;;;;;;2.67;1.08;;;15.20;99.90;;;;;;5075139;28;20099;-70